Pemigewasset River @ Woodstock, Nh

Pemigewasset River at Woodstock
 Total Drainage Area: 193 sq. miles 
 Drainage Area Controlled by Corps Dams: 0 sq. miles (0%) 
 Warning Flow/Stage: 4,830 cfs / 7.0 feet 
 Flood Flow/Stage: 9,750 cfs / 9.0 feet 
Date Time
(Eastern)
Stage
(ft)
Flow
(cfs)
CSM
(cfs / sq. mi.)
Precip.
(in)
Air Temp.
(F)
Jun-25 12:30 am 3.15 411 2.1 8.55 58.5
Jun-24 11:30 pm 3.15 411 2.1 8.55 59.3
Jun-24 10:30 pm 3.17 421 2.2 8.55 61.2
Jun-24 09:30 pm 3.18 426 2.2 8.55 63.7
Jun-24 08:30 pm 3.20 436 2.3 8.55 63.3
Jun-24 07:30 pm 3.24 456 2.4 8.55 62.6
Jun-24 06:30 pm 3.27 472 2.4 8.55 63.8
Jun-24 05:30 pm 3.29 482 2.5 8.49 64.9
Jun-24 04:30 pm 3.32 498 2.6 8.42 69.4
Jun-24 03:30 pm 3.36 520 2.7 8.42 70.0
Jun-24 02:30 pm 3.40 543 2.8 8.42 72.0
Jun-24 01:30 pm 3.44 566 2.9 8.42 68.2
Jun-24 12:30 pm 3.48 589 3.1 8.41 70.3
Jun-24 11:30 am 3.52 613 3.2 8.41 70.3
Jun-24 10:30 am 3.57 644 3.3 8.41 68.2
Jun-24 09:30 am 3.62 675 3.5 8.41 67.0
Jun-24 08:30 am 3.67 708 3.7 8.41 66.2
Jun-24 07:30 am 3.72 741 3.8 8.41 63.1
Jun-24 06:30 am 3.77 775 4.0 8.41 63.4
Jun-24 05:30 am 3.82 810 4.2 8.41 63.5
Jun-24 04:30 am 3.86 838 4.3 8.41 63.8
Jun-24 03:30 am 3.90 867 4.5 8.41 64.5
Jun-24 02:30 am 3.95 904 4.7 8.41 65.3
Jun-24 01:30 am 3.98 927 4.8 8.38 64.1
Jun-24 12:30 am 3.97 919 4.8 8.38 64.2
Report Generated June 25, 2024 04:38 am